Ada, Ohio
Current Conditions -  °F | °C
As of 1:08 PM on Sunday 25 Jan 2015 (Local Time) from KAOH Reporting Station
Light Snow Light Snow  
Wind Chill: 19°   Ceiling: 800
Heat Index: 31°   Visibility: 0.75mi
Dew Point: 27°   Wind: 17mph
Humidity: 85%   Direction: 70°ENE
Pressure: 29.75"   Gusts: 25mph
Location:  40.78°N, 83.82°W
Report Text: KAOH 251808Z AUTO 07015G22KT 3/4SM -SN BR BKN008 OVC014 M01/M03 A2975 RMK AO2 P0000 T10061028
Loading
Personal Weather Stations






























Interactive Weather Map New forecast layout! Learn more

10-Day Weather Forecast

Advertisements
Track Severe Weather on mobile